sensor_id;sensor_type;location;lat;lon;timestamp;P1;durP1;ratioP1;P2;durP2;ratioP2
44276;SDS011;29973;43.742;1.236;2023-03-01T00:01:19;19.67;;;11.93;;
44276;SDS011;29973;43.742;1.236;2023-03-01T00:03:46;20.83;;;11.73;;
44276;SDS011;29973;43.742;1.236;2023-03-01T00:06:15;23.60;;;13.13;;
44276;SDS011;29973;43.742;1.236;2023-03-01T00:08:45;19.77;;;12.43;;
44276;SDS011;29973;43.742;1.236;2023-03-01T00:13:39;19.88;;;12.23;;
44276;SDS011;29973;43.742;1.236;2023-03-01T00:16:26;22.80;;;13.48;;
44276;SDS011;29973;43.742;1.236;2023-03-01T00:18:58;21.95;;;11.75;;
44276;SDS011;29973;43.742;1.236;2023-03-01T00:21:25;18.10;;;11.27;;
44276;SDS011;29973;43.742;1.236;2023-03-01T00:23:52;25.70;;;13.20;;
44276;SDS011;29973;43.742;1.236;2023-03-01T00:26:18;22.50;;;12.82;;
44276;SDS011;29973;43.742;1.236;2023-03-01T00:28:46;20.10;;;12.20;;
44276;SDS011;29973;43.742;1.236;2023-03-01T00:31:13;23.38;;;12.90;;
44276;SDS011;29973;43.742;1.236;2023-03-01T00:33:42;27.40;;;14.13;;
44276;SDS011;29973;43.742;1.236;2023-03-01T00:36:08;27.55;;;15.80;;
44276;SDS011;29973;43.742;1.236;2023-03-01T00:38:35;30.13;;;13.85;;
44276;SDS011;29973;43.742;1.236;2023-03-01T00:41:06;22.17;;;13.68;;
44276;SDS011;29973;43.742;1.236;2023-03-01T00:43:33;20.40;;;12.57;;
44276;SDS011;29973;43.742;1.236;2023-03-01T00:46:11;23.50;;;12.98;;
44276;SDS011;29973;43.742;1.236;2023-03-01T00:48:39;22.30;;;12.48;;
44276;SDS011;29973;43.742;1.236;2023-03-01T00:51:09;21.13;;;12.90;;
44276;SDS011;29973;43.742;1.236;2023-03-01T00:53:35;30.92;;;14.20;;
44276;SDS011;29973;43.742;1.236;2023-03-01T00:56:01;34.47;;;16.45;;
44276;SDS011;29973;43.742;1.236;2023-03-01T00:58:28;23.73;;;14.68;;
44276;SDS011;29973;43.742;1.236;2023-03-01T01:00:54;25.60;;;14.48;;
44276;SDS011;29973;43.742;1.236;2023-03-01T01:03:21;22.55;;;13.30;;
44276;SDS011;29973;43.742;1.236;2023-03-01T01:05:50;34.15;;;15.00;;
44276;SDS011;29973;43.742;1.236;2023-03-01T01:08:17;25.80;;;14.20;;
44276;SDS011;29973;43.742;1.236;2023-03-01T01:10:44;23.48;;;12.90;;
44276;SDS011;29973;43.742;1.236;2023-03-01T01:13:10;27.85;;;15.20;;
44276;SDS011;29973;43.742;1.236;2023-03-01T01:15:36;28.23;;;15.30;;
44276;SDS011;29973;43.742;1.236;2023-03-01T01:18:02;23.30;;;14.18;;
44276;SDS011;29973;43.742;1.236;2023-03-01T01:20:28;25.23;;;14.07;;
44276;SDS011;29973;43.742;1.236;2023-03-01T01:22:54;29.52;;;15.10;;
44276;SDS011;29973;43.742;1.236;2023-03-01T01:25:20;26.13;;;15.43;;
44276;SDS011;29973;43.742;1.236;2023-03-01T01:27:46;22.90;;;13.98;;
44276;SDS011;29973;43.742;1.236;2023-03-01T01:30:12;31.08;;;15.27;;
44276;SDS011;29973;43.742;1.236;2023-03-01T01:32:38;24.55;;;14.18;;
44276;SDS011;29973;43.742;1.236;2023-03-01T01:35:04;29.88;;;15.38;;
44276;SDS011;29973;43.742;1.236;2023-03-01T01:37:30;29.88;;;15.57;;
44276;SDS011;29973;43.742;1.236;2023-03-01T01:39:58;25.90;;;14.55;;
44276;SDS011;29973;43.742;1.236;2023-03-01T01:42:25;26.10;;;15.60;;
44276;SDS011;29973;43.742;1.236;2023-03-01T01:45:27;29.60;;;16.05;;
44276;SDS011;29973;43.742;1.236;2023-03-01T01:47:57;24.70;;;14.40;;
44276;SDS011;29973;43.742;1.236;2023-03-01T01:53:02;25.10;;;13.30;;
44276;SDS011;29973;43.742;1.236;2023-03-01T01:55:31;26.70;;;14.15;;
44276;SDS011;29973;43.742;1.236;2023-03-01T01:57:58;30.73;;;16.00;;
44276;SDS011;29973;43.742;1.236;2023-03-01T02:00:28;23.43;;;14.60;;
44276;SDS011;29973;43.742;1.236;2023-03-01T02:02:59;26.42;;;13.98;;
44276;SDS011;29973;43.742;1.236;2023-03-01T02:07:59;23.55;;;13.45;;
44276;SDS011;29973;43.742;1.236;2023-03-01T02:10:25;24.15;;;13.93;;
44276;SDS011;29973;43.742;1.236;2023-03-01T02:12:52;25.63;;;13.32;;
44276;SDS011;29973;43.742;1.236;2023-03-01T02:15:21;26.70;;;14.30;;
44276;SDS011;29973;43.742;1.236;2023-03-01T02:17:48;24.63;;;13.65;;
44276;SDS011;29973;43.742;1.236;2023-03-01T02:22:51;25.58;;;14.77;;
44276;SDS011;29973;43.742;1.236;2023-03-01T02:25:27;25.13;;;13.70;;
44276;SDS011;29973;43.742;1.236;2023-03-01T02:30:32;30.10;;;17.05;;
44276;SDS011;29973;43.742;1.236;2023-03-01T02:33:00;28.05;;;15.60;;
44276;SDS011;29973;43.742;1.236;2023-03-01T02:35:34;30.08;;;17.08;;
44276;SDS011;29973;43.742;1.236;2023-03-01T02:38:02;29.92;;;15.55;;
44276;SDS011;29973;43.742;1.236;2023-03-01T02:40:31;29.48;;;16.42;;
44276;SDS011;29973;43.742;1.236;2023-03-01T02:42:59;31.40;;;16.02;;
44276;SDS011;29973;43.742;1.236;2023-03-01T02:45:26;28.73;;;15.65;;
44276;SDS011;29973;43.742;1.236;2023-03-01T02:47:56;25.23;;;15.23;;
44276;SDS011;29973;43.742;1.236;2023-03-01T02:55:25;30.17;;;15.35;;
44276;SDS011;29973;43.742;1.236;2023-03-01T02:57:52;32.45;;;15.63;;
44276;SDS011;29973;43.742;1.236;2023-03-01T03:00:23;32.95;;;16.65;;
44276;SDS011;29973;43.742;1.236;2023-03-01T03:02:53;44.83;;;21.25;;
44276;SDS011;29973;43.742;1.236;2023-03-01T03:05:26;49.78;;;22.55;;
44276;SDS011;29973;43.742;1.236;2023-03-01T03:07:55;48.40;;;20.98;;
44276;SDS011;29973;43.742;1.236;2023-03-01T03:10:26;42.28;;;19.83;;
44276;SDS011;29973;43.742;1.236;2023-03-01T03:12:55;32.63;;;17.50;;
44276;SDS011;29973;43.742;1.236;2023-03-01T03:17:52;36.67;;;17.00;;
44276;SDS011;29973;43.742;1.236;2023-03-01T03:20:19;34.65;;;16.23;;
44276;SDS011;29973;43.742;1.236;2023-03-01T03:22:50;36.38;;;17.23;;
44276;SDS011;29973;43.742;1.236;2023-03-01T03:25:17;38.92;;;18.27;;
44276;SDS011;29973;43.742;1.236;2023-03-01T03:27:45;43.28;;;21.35;;
44276;SDS011;29973;43.742;1.236;2023-03-01T03:30:13;47.50;;;19.48;;
44276;SDS011;29973;43.742;1.236;2023-03-01T03:32:44;37.58;;;18.08;;
44276;SDS011;29973;43.742;1.236;2023-03-01T03:35:17;29.70;;;16.90;;
44276;SDS011;29973;43.742;1.236;2023-03-01T03:37:51;34.45;;;17.60;;
44276;SDS011;29973;43.742;1.236;2023-03-01T03:40:27;31.27;;;17.77;;
44276;SDS011;29973;43.742;1.236;2023-03-01T03:43:18;45.00;;;21.60;;
44276;SDS011;29973;43.742;1.236;2023-03-01T03:45:46;39.40;;;18.83;;
44276;SDS011;29973;43.742;1.236;2023-03-01T03:48:12;31.75;;;17.70;;
44276;SDS011;29973;43.742;1.236;2023-03-01T03:50:39;30.92;;;17.65;;
44276;SDS011;29973;43.742;1.236;2023-03-01T03:53:07;33.75;;;16.42;;
44276;SDS011;29973;43.742;1.236;2023-03-01T03:55:34;35.80;;;16.58;;
44276;SDS011;29973;43.742;1.236;2023-03-01T03:58:04;35.13;;;17.63;;
44276;SDS011;29973;43.742;1.236;2023-03-01T04:00:32;35.30;;;17.85;;
44276;SDS011;29973;43.742;1.236;2023-03-01T04:02:59;30.02;;;17.10;;
44276;SDS011;29973;43.742;1.236;2023-03-01T04:05:26;32.47;;;17.10;;
44276;SDS011;29973;43.742;1.236;2023-03-01T04:07:52;30.90;;;17.92;;
44276;SDS011;29973;43.742;1.236;2023-03-01T04:10:26;27.88;;;15.40;;
44276;SDS011;29973;43.742;1.236;2023-03-01T04:12:56;35.30;;;17.25;;
44276;SDS011;29973;43.742;1.236;2023-03-01T04:15:23;33.05;;;16.58;;
44276;SDS011;29973;43.742;1.236;2023-03-01T04:17:50;27.98;;;15.00;;
44276;SDS011;29973;43.742;1.236;2023-03-01T04:20:18;29.00;;;15.30;;
44276;SDS011;29973;43.742;1.236;2023-03-01T04:25:22;32.25;;;17.25;;
44276;SDS011;29973;43.742;1.236;2023-03-01T04:27:48;35.55;;;17.48;;
44276;SDS011;29973;43.742;1.236;2023-03-01T04:30:14;36.55;;;18.10;;
44276;SDS011;29973;43.742;1.236;2023-03-01T04:32:40;37.53;;;17.45;;
44276;SDS011;29973;43.742;1.236;2023-03-01T04:35:05;34.15;;;16.95;;
44276;SDS011;29973;43.742;1.236;2023-03-01T04:37:31;35.90;;;17.90;;
44276;SDS011;29973;43.742;1.236;2023-03-01T04:39:58;40.25;;;19.23;;
44276;SDS011;29973;43.742;1.236;2023-03-01T04:42:23;35.42;;;18.08;;
44276;SDS011;29973;43.742;1.236;2023-03-01T04:44:49;32.95;;;17.13;;
44276;SDS011;29973;43.742;1.236;2023-03-01T04:47:17;32.97;;;17.23;;
44276;SDS011;29973;43.742;1.236;2023-03-01T04:49:43;33.20;;;16.67;;
44276;SDS011;29973;43.742;1.236;2023-03-01T04:52:09;33.58;;;17.23;;
44276;SDS011;29973;43.742;1.236;2023-03-01T04:54:35;34.95;;;19.10;;
44276;SDS011;29973;43.742;1.236;2023-03-01T04:57:01;40.72;;;18.77;;
44276;SDS011;29973;43.742;1.236;2023-03-01T04:59:28;46.55;;;20.58;;
44276;SDS011;29973;43.742;1.236;2023-03-01T05:01:54;36.20;;;18.23;;
44276;SDS011;29973;43.742;1.236;2023-03-01T05:04:21;34.72;;;19.98;;
44276;SDS011;29973;43.742;1.236;2023-03-01T05:06:48;45.97;;;21.48;;
44276;SDS011;29973;43.742;1.236;2023-03-01T05:09:13;53.47;;;24.55;;
44276;SDS011;29973;43.742;1.236;2023-03-01T05:11:39;60.17;;;25.60;;
44276;SDS011;29973;43.742;1.236;2023-03-01T05:14:06;59.10;;;23.80;;
44276;SDS011;29973;43.742;1.236;2023-03-01T05:16:33;47.20;;;21.92;;
44276;SDS011;29973;43.742;1.236;2023-03-01T05:19:01;41.40;;;20.38;;
44276;SDS011;29973;43.742;1.236;2023-03-01T05:21:36;48.20;;;21.63;;
44276;SDS011;29973;43.742;1.236;2023-03-01T05:24:23;47.10;;;22.50;;
44276;SDS011;29973;43.742;1.236;2023-03-01T05:26:49;47.80;;;23.80;;
44276;SDS011;29973;43.742;1.236;2023-03-01T05:29:17;57.60;;;24.48;;
44276;SDS011;29973;43.742;1.236;2023-03-01T05:31:56;70.70;;;27.23;;
44276;SDS011;29973;43.742;1.236;2023-03-01T05:34:26;86.07;;;33.53;;
44276;SDS011;29973;43.742;1.236;2023-03-01T05:36:57;75.45;;;30.30;;
44276;SDS011;29973;43.742;1.236;2023-03-01T05:39:24;56.47;;;25.48;;
44276;SDS011;29973;43.742;1.236;2023-03-01T05:41:52;55.92;;;24.67;;
44276;SDS011;29973;43.742;1.236;2023-03-01T05:44:19;55.00;;;24.17;;
44276;SDS011;29973;43.742;1.236;2023-03-01T05:46:45;47.42;;;21.13;;
44276;SDS011;29973;43.742;1.236;2023-03-01T05:49:11;45.13;;;20.45;;
44276;SDS011;29973;43.742;1.236;2023-03-01T05:51:41;42.97;;;20.73;;
44276;SDS011;29973;43.742;1.236;2023-03-01T05:54:08;41.50;;;20.88;;
44276;SDS011;29973;43.742;1.236;2023-03-01T05:56:35;39.88;;;18.85;;
44276;SDS011;29973;43.742;1.236;2023-03-01T05:59:01;46.38;;;20.73;;
44276;SDS011;29973;43.742;1.236;2023-03-01T06:01:28;42.38;;;19.70;;
44276;SDS011;29973;43.742;1.236;2023-03-01T06:03:54;39.00;;;20.38;;
44276;SDS011;29973;43.742;1.236;2023-03-01T06:06:21;39.13;;;18.85;;
44276;SDS011;29973;43.742;1.236;2023-03-01T06:08:47;41.28;;;20.70;;
44276;SDS011;29973;43.742;1.236;2023-03-01T06:11:13;43.95;;;20.38;;
44276;SDS011;29973;43.742;1.236;2023-03-01T06:13:40;40.10;;;19.92;;
44276;SDS011;29973;43.742;1.236;2023-03-01T06:16:07;45.60;;;22.40;;
44276;SDS011;29973;43.742;1.236;2023-03-01T06:18:33;39.55;;;20.58;;
44276;SDS011;29973;43.742;1.236;2023-03-01T06:20:59;34.95;;;18.27;;
44276;SDS011;29973;43.742;1.236;2023-03-01T06:23:24;41.15;;;20.98;;
44276;SDS011;29973;43.742;1.236;2023-03-01T06:25:50;41.47;;;18.77;;
44276;SDS011;29973;43.742;1.236;2023-03-01T06:28:16;41.22;;;19.50;;
44276;SDS011;29973;43.742;1.236;2023-03-01T06:30:42;37.70;;;19.98;;
44276;SDS011;29973;43.742;1.236;2023-03-01T06:33:08;34.55;;;18.35;;
44276;SDS011;29973;43.742;1.236;2023-03-01T06:35:34;47.30;;;20.67;;
44276;SDS011;29973;43.742;1.236;2023-03-01T06:38:00;49.75;;;21.67;;
44276;SDS011;29973;43.742;1.236;2023-03-01T06:40:27;50.97;;;21.25;;
44276;SDS011;29973;43.742;1.236;2023-03-01T06:42:54;43.75;;;21.35;;
44276;SDS011;29973;43.742;1.236;2023-03-01T06:45:20;48.10;;;22.88;;
44276;SDS011;29973;43.742;1.236;2023-03-01T06:47:46;43.47;;;20.00;;
44276;SDS011;29973;43.742;1.236;2023-03-01T06:50:12;44.10;;;20.10;;
44276;SDS011;29973;43.742;1.236;2023-03-01T06:52:38;39.15;;;18.48;;
44276;SDS011;29973;43.742;1.236;2023-03-01T06:55:04;43.22;;;19.58;;
44276;SDS011;29973;43.742;1.236;2023-03-01T06:57:30;42.78;;;18.40;;
44276;SDS011;29973;43.742;1.236;2023-03-01T06:59:56;36.15;;;17.33;;
44276;SDS011;29973;43.742;1.236;2023-03-01T07:02:22;29.17;;;17.60;;
44276;SDS011;29973;43.742;1.236;2023-03-01T07:04:48;35.13;;;19.05;;
44276;SDS011;29973;43.742;1.236;2023-03-01T07:07:15;42.67;;;19.27;;
44276;SDS011;29973;43.742;1.236;2023-03-01T07:09:43;41.45;;;19.10;;
44276;SDS011;29973;43.742;1.236;2023-03-01T07:12:09;39.35;;;19.30;;
44276;SDS011;29973;43.742;1.236;2023-03-01T07:14:35;37.90;;;19.00;;
44276;SDS011;29973;43.742;1.236;2023-03-01T07:17:00;41.17;;;20.45;;
44276;SDS011;29973;43.742;1.236;2023-03-01T07:19:26;49.50;;;21.40;;
44276;SDS011;29973;43.742;1.236;2023-03-01T07:21:52;45.17;;;22.38;;
44276;SDS011;29973;43.742;1.236;2023-03-01T07:24:18;40.58;;;21.02;;
44276;SDS011;29973;43.742;1.236;2023-03-01T07:26:43;38.63;;;18.88;;
44276;SDS011;29973;43.742;1.236;2023-03-01T07:29:12;38.75;;;20.83;;
44276;SDS011;29973;43.742;1.236;2023-03-01T07:31:38;48.58;;;23.10;;
44276;SDS011;29973;43.742;1.236;2023-03-01T07:34:04;40.47;;;21.02;;
44276;SDS011;29973;43.742;1.236;2023-03-01T07:36:29;47.85;;;22.17;;
44276;SDS011;29973;43.742;1.236;2023-03-01T07:38:55;43.85;;;20.17;;
44276;SDS011;29973;43.742;1.236;2023-03-01T07:41:21;39.05;;;19.75;;
44276;SDS011;29973;43.742;1.236;2023-03-01T07:43:47;47.90;;;20.67;;
44276;SDS011;29973;43.742;1.236;2023-03-01T07:46:13;43.90;;;20.88;;
44276;SDS011;29973;43.742;1.236;2023-03-01T07:48:38;37.95;;;19.63;;
44276;SDS011;29973;43.742;1.236;2023-03-01T07:51:05;44.58;;;23.08;;
44276;SDS011;29973;43.742;1.236;2023-03-01T07:53:31;42.80;;;21.83;;
44276;SDS011;29973;43.742;1.236;2023-03-01T07:56:11;51.88;;;24.25;;
44276;SDS011;29973;43.742;1.236;2023-03-01T07:58:39;53.30;;;26.38;;
44276;SDS011;29973;43.742;1.236;2023-03-01T08:01:07;46.95;;;24.13;;
44276;SDS011;29973;43.742;1.236;2023-03-01T08:03:35;53.08;;;24.25;;
44276;SDS011;29973;43.742;1.236;2023-03-01T08:06:02;44.88;;;22.10;;
44276;SDS011;29973;43.742;1.236;2023-03-01T08:08:29;38.88;;;20.10;;
44276;SDS011;29973;43.742;1.236;2023-03-01T08:10:56;39.35;;;18.92;;
44276;SDS011;29973;43.742;1.236;2023-03-01T08:13:22;38.75;;;20.13;;
44276;SDS011;29973;43.742;1.236;2023-03-01T08:15:48;43.53;;;22.15;;
44276;SDS011;29973;43.742;1.236;2023-03-01T08:18:15;37.78;;;19.63;;
44276;SDS011;29973;43.742;1.236;2023-03-01T08:20:42;38.15;;;19.65;;
44276;SDS011;29973;43.742;1.236;2023-03-01T08:23:07;29.35;;;17.08;;
44276;SDS011;29973;43.742;1.236;2023-03-01T08:25:33;36.08;;;18.20;;
44276;SDS011;29973;43.742;1.236;2023-03-01T08:27:59;31.60;;;17.65;;
44276;SDS011;29973;43.742;1.236;2023-03-01T08:30:25;32.53;;;18.00;;
44276;SDS011;29973;43.742;1.236;2023-03-01T08:32:51;29.85;;;17.88;;
44276;SDS011;29973;43.742;1.236;2023-03-01T08:35:17;32.83;;;17.58;;
44276;SDS011;29973;43.742;1.236;2023-03-01T08:37:44;28.60;;;16.83;;
44276;SDS011;29973;43.742;1.236;2023-03-01T08:40:09;31.70;;;18.73;;
44276;SDS011;29973;43.742;1.236;2023-03-01T08:42:36;32.53;;;18.58;;
44276;SDS011;29973;43.742;1.236;2023-03-01T08:45:05;32.60;;;17.92;;
44276;SDS011;29973;43.742;1.236;2023-03-01T08:47:32;30.42;;;17.13;;
44276;SDS011;29973;43.742;1.236;2023-03-01T08:50:01;32.05;;;17.77;;
44276;SDS011;29973;43.742;1.236;2023-03-01T08:52:27;30.17;;;16.80;;
44276;SDS011;29973;43.742;1.236;2023-03-01T08:54:55;27.48;;;16.38;;
44276;SDS011;29973;43.742;1.236;2023-03-01T08:57:21;30.75;;;17.00;;
44276;SDS011;29973;43.742;1.236;2023-03-01T08:59:46;26.63;;;17.27;;
44276;SDS011;29973;43.742;1.236;2023-03-01T09:02:14;29.48;;;16.88;;
44276;SDS011;29973;43.742;1.236;2023-03-01T09:04:43;30.50;;;15.93;;
44276;SDS011;29973;43.742;1.236;2023-03-01T09:07:12;28.80;;;16.65;;
44276;SDS011;29973;43.742;1.236;2023-03-01T09:09:38;23.80;;;14.82;;
44276;SDS011;29973;43.742;1.236;2023-03-01T09:12:04;25.30;;;15.38;;
44276;SDS011;29973;43.742;1.236;2023-03-01T09:14:30;22.60;;;13.82;;
44276;SDS011;29973;43.742;1.236;2023-03-01T09:16:56;22.63;;;13.70;;
44276;SDS011;29973;43.742;1.236;2023-03-01T09:19:22;24.05;;;14.70;;
44276;SDS011;29973;43.742;1.236;2023-03-01T09:21:48;21.60;;;13.75;;
44276;SDS011;29973;43.742;1.236;2023-03-01T09:24:24;26.27;;;15.57;;
44276;SDS011;29973;43.742;1.236;2023-03-01T09:26:54;27.73;;;15.70;;
44276;SDS011;29973;43.742;1.236;2023-03-01T09:29:26;25.05;;;15.18;;
44276;SDS011;29973;43.742;1.236;2023-03-01T09:31:52;26.17;;;15.50;;
44276;SDS011;29973;43.742;1.236;2023-03-01T09:34:21;24.17;;;15.55;;
44276;SDS011;29973;43.742;1.236;2023-03-01T09:36:51;27.75;;;15.35;;
44276;SDS011;29973;43.742;1.236;2023-03-01T09:39:22;21.08;;;13.32;;
44276;SDS011;29973;43.742;1.236;2023-03-01T09:41:50;20.65;;;13.48;;
44276;SDS011;29973;43.742;1.236;2023-03-01T09:44:59;23.42;;;13.50;;
44276;SDS011;29973;43.742;1.236;2023-03-01T09:47:24;18.02;;;11.57;;
44276;SDS011;29973;43.742;1.236;2023-03-01T09:52:44;14.40;;;8.88;;
44276;SDS011;29973;43.742;1.236;2023-03-01T09:55:16;15.20;;;9.48;;
44276;SDS011;29973;43.742;1.236;2023-03-01T09:57:53;13.85;;;9.88;;
44276;SDS011;29973;43.742;1.236;2023-03-01T10:03:25;13.77;;;8.80;;
44276;SDS011;29973;43.742;1.236;2023-03-01T10:06:25;11.50;;;8.30;;
44276;SDS011;29973;43.742;1.236;2023-03-01T10:09:08;11.40;;;8.43;;
44276;SDS011;29973;43.742;1.236;2023-03-01T10:11:50;13.02;;;7.78;;
44276;SDS011;29973;43.742;1.236;2023-03-01T10:14:30;11.50;;;7.50;;
44276;SDS011;29973;43.742;1.236;2023-03-01T10:17:04;11.27;;;7.35;;
44276;SDS011;29973;43.742;1.236;2023-03-01T10:20:25;11.13;;;7.35;;
44276;SDS011;29973;43.742;1.236;2023-03-01T10:23:07;13.50;;;8.40;;
44276;SDS011;29973;43.742;1.236;2023-03-01T10:25:45;10.65;;;7.18;;
44276;SDS011;29973;43.742;1.236;2023-03-01T10:28:35;9.13;;;7.68;;
44276;SDS011;29973;43.742;1.236;2023-03-01T10:31:18;9.60;;;6.53;;
44276;SDS011;29973;43.742;1.236;2023-03-01T10:33:55;9.75;;;6.72;;
44276;SDS011;29973;43.742;1.236;2023-03-01T10:36:35;9.18;;;7.10;;
44276;SDS011;29973;43.742;1.236;2023-03-01T10:39:17;8.98;;;7.03;;
44276;SDS011;29973;43.742;1.236;2023-03-01T10:42:46;9.15;;;7.47;;
44276;SDS011;29973;43.742;1.236;2023-03-01T10:48:04;9.25;;;7.25;;
44276;SDS011;29973;43.742;1.236;2023-03-01T10:50:33;8.65;;;6.60;;
44276;SDS011;29973;43.742;1.236;2023-03-01T10:53:01;7.85;;;6.70;;
44276;SDS011;29973;43.742;1.236;2023-03-01T10:58:23;11.45;;;7.38;;
44276;SDS011;29973;43.742;1.236;2023-03-01T11:00:50;9.90;;;7.20;;
44276;SDS011;29973;43.742;1.236;2023-03-01T11:03:32;10.45;;;7.38;;
44276;SDS011;29973;43.742;1.236;2023-03-01T11:08:41;9.32;;;7.35;;
44276;SDS011;29973;43.742;1.236;2023-03-01T11:16:41;7.93;;;6.68;;
44276;SDS011;29973;43.742;1.236;2023-03-01T11:21:34;8.10;;;6.70;;
44276;SDS011;29973;43.742;1.236;2023-03-01T11:24:06;9.32;;;7.65;;
44276;SDS011;29973;43.742;1.236;2023-03-01T11:26:37;7.68;;;6.13;;
44276;SDS011;29973;43.742;1.236;2023-03-01T11:29:10;9.98;;;7.43;;
44276;SDS011;29973;43.742;1.236;2023-03-01T11:31:50;8.48;;;7.07;;
44276;SDS011;29973;43.742;1.236;2023-03-01T11:34:19;7.57;;;6.78;;
44276;SDS011;29973;43.742;1.236;2023-03-01T11:36:59;9.15;;;7.25;;
44276;SDS011;29973;43.742;1.236;2023-03-01T11:39:47;8.50;;;6.15;;
44276;SDS011;29973;43.742;1.236;2023-03-01T11:42:42;7.50;;;6.68;;
44276;SDS011;29973;43.742;1.236;2023-03-01T11:45:26;9.82;;;7.82;;
44276;SDS011;29973;43.742;1.236;2023-03-01T11:50:44;7.93;;;6.80;;
44276;SDS011;29973;43.742;1.236;2023-03-01T12:10:19;8.32;;;7.30;;
44276;SDS011;29973;43.742;1.236;2023-03-01T12:15:47;8.55;;;6.25;;
44276;SDS011;29973;43.742;1.236;2023-03-01T12:19:01;6.53;;;5.90;;
44276;SDS011;29973;43.742;1.236;2023-03-01T12:27:41;9.23;;;6.75;;
44276;SDS011;29973;43.742;1.236;2023-03-01T12:49:38;7.30;;;6.50;;
44276;SDS011;29973;43.742;1.236;2023-03-01T12:55:06;7.68;;;6.35;;
44276;SDS011;29973;43.742;1.236;2023-03-01T12:57:46;6.68;;;6.05;;
44276;SDS011;29973;43.742;1.236;2023-03-01T13:03:05;7.13;;;6.28;;
44276;SDS011;29973;43.742;1.236;2023-03-01T13:05:41;9.00;;;6.18;;
44276;SDS011;29973;43.742;1.236;2023-03-01T13:08:35;8.73;;;6.22;;
44276;SDS011;29973;43.742;1.236;2023-03-01T13:11:29;6.68;;;5.95;;
44276;SDS011;29973;43.742;1.236;2023-03-01T13:16:46;7.05;;;6.35;;
44276;SDS011;29973;43.742;1.236;2023-03-01T13:19:27;11.48;;;7.07;;
44276;SDS011;29973;43.742;1.236;2023-03-01T13:22:01;7.07;;;6.28;;
44276;SDS011;29973;43.742;1.236;2023-03-01T13:25:15;8.63;;;7.32;;
44276;SDS011;29973;43.742;1.236;2023-03-01T13:27:45;6.95;;;5.75;;
44276;SDS011;29973;43.742;1.236;2023-03-01T13:33:41;7.07;;;5.75;;
44276;SDS011;29973;43.742;1.236;2023-03-01T13:35:53;6.35;;;5.75;;
44276;SDS011;29973;43.742;1.236;2023-03-01T13:41:08;8.63;;;5.88;;
44276;SDS011;29973;43.742;1.236;2023-03-01T13:43:35;7.78;;;6.57;;
44276;SDS011;29973;43.742;1.236;2023-03-01T13:46:10;8.35;;;6.47;;
44276;SDS011;29973;43.742;1.236;2023-03-01T13:48:48;6.78;;;5.93;;
44276;SDS011;29973;43.742;1.236;2023-03-01T13:51:20;7.25;;;6.53;;
44276;SDS011;29973;43.742;1.236;2023-03-01T13:53:48;7.65;;;6.72;;
44276;SDS011;29973;43.742;1.236;2023-03-01T13:56:19;7.13;;;6.30;;
44276;SDS011;29973;43.742;1.236;2023-03-01T14:01:26;9.38;;;6.35;;
44276;SDS011;29973;43.742;1.236;2023-03-01T14:03:56;6.72;;;6.00;;
44276;SDS011;29973;43.742;1.236;2023-03-01T14:06:25;8.48;;;6.38;;
44276;SDS011;29973;43.742;1.236;2023-03-01T14:20:20;5.97;;;5.38;;
44276;SDS011;29973;43.742;1.236;2023-03-01T14:22:46;6.85;;;6.15;;
44276;SDS011;29973;43.742;1.236;2023-03-01T14:25:24;9.35;;;6.60;;
44276;SDS011;29973;43.742;1.236;2023-03-01T14:27:56;8.02;;;6.22;;
44276;SDS011;29973;43.742;1.236;2023-03-01T14:30:24;7.18;;;6.15;;
44276;SDS011;29973;43.742;1.236;2023-03-01T14:32:56;7.95;;;6.10;;
44276;SDS011;29973;43.742;1.236;2023-03-01T14:37:50;6.70;;;5.72;;
44276;SDS011;29973;43.742;1.236;2023-03-01T14:40:21;7.93;;;6.55;;
44276;SDS011;29973;43.742;1.236;2023-03-01T14:42:49;7.05;;;6.20;;
44276;SDS011;29973;43.742;1.236;2023-03-01T14:45:16;8.18;;;6.22;;
44276;SDS011;29973;43.742;1.236;2023-03-01T14:47:43;6.65;;;5.95;;
44276;SDS011;29973;43.742;1.236;2023-03-01T14:50:15;7.75;;;6.05;;
44276;SDS011;29973;43.742;1.236;2023-03-01T14:52:50;7.35;;;5.90;;
44276;SDS011;29973;43.742;1.236;2023-03-01T14:55:24;8.27;;;6.63;;
44276;SDS011;29973;43.742;1.236;2023-03-01T14:57:54;6.93;;;6.22;;
44276;SDS011;29973;43.742;1.236;2023-03-01T15:00:22;8.48;;;6.57;;
44276;SDS011;29973;43.742;1.236;2023-03-01T15:02:53;8.43;;;6.43;;
44276;SDS011;29973;43.742;1.236;2023-03-01T15:05:25;9.50;;;6.10;;
44276;SDS011;29973;43.742;1.236;2023-03-01T15:07:59;6.93;;;6.22;;
44276;SDS011;29973;43.742;1.236;2023-03-01T15:10:28;7.13;;;5.97;;
44276;SDS011;29973;43.742;1.236;2023-03-01T15:13:09;7.35;;;6.60;;
44276;SDS011;29973;43.742;1.236;2023-03-01T15:15:37;9.50;;;6.88;;
44276;SDS011;29973;43.742;1.236;2023-03-01T15:18:12;8.63;;;7.00;;
44276;SDS011;29973;43.742;1.236;2023-03-01T15:20:41;8.35;;;6.70;;
44276;SDS011;29973;43.742;1.236;2023-03-01T15:23:16;8.43;;;6.82;;
44276;SDS011;29973;43.742;1.236;2023-03-01T15:25:48;10.10;;;7.20;;
44276;SDS011;29973;43.742;1.236;2023-03-01T15:28:21;7.35;;;6.53;;
44276;SDS011;29973;43.742;1.236;2023-03-01T15:33:29;9.32;;;7.75;;
44276;SDS011;29973;43.742;1.236;2023-03-01T15:35:56;7.95;;;7.00;;
44276;SDS011;29973;43.742;1.236;2023-03-01T15:41:03;8.73;;;6.82;;
44276;SDS011;29973;43.742;1.236;2023-03-01T15:43:48;8.65;;;7.72;;
44276;SDS011;29973;43.742;1.236;2023-03-01T15:46:25;8.05;;;6.82;;
44276;SDS011;29973;43.742;1.236;2023-03-01T15:48:58;9.90;;;8.23;;
44276;SDS011;29973;43.742;1.236;2023-03-01T15:51:37;8.73;;;7.43;;
44276;SDS011;29973;43.742;1.236;2023-03-01T15:54:08;8.25;;;6.88;;
44276;SDS011;29973;43.742;1.236;2023-03-01T15:56:45;8.52;;;6.40;;
44276;SDS011;29973;43.742;1.236;2023-03-01T15:59:11;10.13;;;7.75;;
44276;SDS011;29973;43.742;1.236;2023-03-01T16:01:39;10.43;;;7.97;;
44276;SDS011;29973;43.742;1.236;2023-03-01T16:04:12;8.25;;;7.35;;
44276;SDS011;29973;43.742;1.236;2023-03-01T16:06:45;9.48;;;7.45;;
44276;SDS011;29973;43.742;1.236;2023-03-01T16:09:12;10.93;;;8.00;;
44276;SDS011;29973;43.742;1.236;2023-03-01T16:11:38;10.43;;;7.93;;
44276;SDS011;29973;43.742;1.236;2023-03-01T16:14:05;9.52;;;7.05;;
44276;SDS011;29973;43.742;1.236;2023-03-01T16:16:31;8.30;;;6.72;;
44276;SDS011;29973;43.742;1.236;2023-03-01T16:18:57;9.45;;;7.18;;
44276;SDS011;29973;43.742;1.236;2023-03-01T16:21:23;9.95;;;7.63;;
44276;SDS011;29973;43.742;1.236;2023-03-01T16:23:50;9.30;;;7.38;;
44276;SDS011;29973;43.742;1.236;2023-03-01T16:26:17;17.27;;;8.20;;
44276;SDS011;29973;43.742;1.236;2023-03-01T16:28:44;8.35;;;7.20;;
44276;SDS011;29973;43.742;1.236;2023-03-01T16:31:10;10.45;;;7.70;;
44276;SDS011;29973;43.742;1.236;2023-03-01T16:33:38;9.57;;;7.28;;
44276;SDS011;29973;43.742;1.236;2023-03-01T16:36:08;8.40;;;6.40;;
44276;SDS011;29973;43.742;1.236;2023-03-01T16:38:34;9.48;;;7.05;;
44276;SDS011;29973;43.742;1.236;2023-03-01T16:41:00;13.43;;;8.38;;
44276;SDS011;29973;43.742;1.236;2023-03-01T16:43:26;8.95;;;7.20;;
44276;SDS011;29973;43.742;1.236;2023-03-01T16:45:52;9.50;;;7.28;;
44276;SDS011;29973;43.742;1.236;2023-03-01T16:48:18;9.70;;;7.40;;
44276;SDS011;29973;43.742;1.236;2023-03-01T16:50:43;10.63;;;8.48;;
44276;SDS011;29973;43.742;1.236;2023-03-01T16:53:09;12.13;;;8.18;;
44276;SDS011;29973;43.742;1.236;2023-03-01T16:55:35;11.02;;;7.88;;
44276;SDS011;29973;43.742;1.236;2023-03-01T16:58:01;11.27;;;7.82;;